sensor_id;sensor_type;location;lat;lon;timestamp;temperature;humidity
13585;DHT22;6863;48.402;9.994;2022-12-04T00:01:10;0.40;99.90
13585;DHT22;6863;48.402;9.994;2022-12-04T00:03:36;0.40;99.90
13585;DHT22;6863;48.402;9.994;2022-12-04T00:08:32;0.40;99.90
13585;DHT22;6863;48.402;9.994;2022-12-04T00:10:57;0.40;99.90
13585;DHT22;6863;48.402;9.994;2022-12-04T00:13:23;0.40;99.90
13585;DHT22;6863;48.402;9.994;2022-12-04T00:15:49;0.40;99.90
13585;DHT22;6863;48.402;9.994;2022-12-04T00:18:14;0.40;99.90
13585;DHT22;6863;48.402;9.994;2022-12-04T00:20:40;0.40;99.90
13585;DHT22;6863;48.402;9.994;2022-12-04T00:23:06;0.40;99.90
13585;DHT22;6863;48.402;9.994;2022-12-04T00:25:31;0.40;99.90
13585;DHT22;6863;48.402;9.994;2022-12-04T00:27:57;0.50;99.90
13585;DHT22;6863;48.402;9.994;2022-12-04T00:30:22;0.40;99.90
13585;DHT22;6863;48.402;9.994;2022-12-04T00:32:48;0.40;99.90
13585;DHT22;6863;48.402;9.994;2022-12-04T00:35:13;0.40;99.90
13585;DHT22;6863;48.402;9.994;2022-12-04T00:37:39;0.40;99.90
13585;DHT22;6863;48.402;9.994;2022-12-04T00:40:05;0.40;99.90
13585;DHT22;6863;48.402;9.994;2022-12-04T00:42:31;0.40;99.90
13585;DHT22;6863;48.402;9.994;2022-12-04T00:44:56;0.40;99.90
13585;DHT22;6863;48.402;9.994;2022-12-04T00:47:22;0.40;99.90
13585;DHT22;6863;48.402;9.994;2022-12-04T00:52:13;0.40;99.90
13585;DHT22;6863;48.402;9.994;2022-12-04T00:54:38;0.40;99.90
13585;DHT22;6863;48.402;9.994;2022-12-04T00:57:04;0.40;99.90
13585;DHT22;6863;48.402;9.994;2022-12-04T00:59:30;0.40;99.90
13585;DHT22;6863;48.402;9.994;2022-12-04T01:01:55;0.40;99.90
13585;DHT22;6863;48.402;9.994;2022-12-04T01:04:21;0.40;99.90
13585;DHT22;6863;48.402;9.994;2022-12-04T01:06:46;0.40;99.90
13585;DHT22;6863;48.402;9.994;2022-12-04T01:09:12;0.40;99.90
13585;DHT22;6863;48.402;9.994;2022-12-04T01:11:37;0.40;99.90
13585;DHT22;6863;48.402;9.994;2022-12-04T01:14:03;0.40;99.90
13585;DHT22;6863;48.402;9.994;2022-12-04T01:16:35;0.40;99.90
13585;DHT22;6863;48.402;9.994;2022-12-04T01:19:02;0.40;99.90
13585;DHT22;6863;48.402;9.994;2022-12-04T01:21:28;0.40;99.90
13585;DHT22;6863;48.402;9.994;2022-12-04T01:23:54;0.40;99.90
13585;DHT22;6863;48.402;9.994;2022-12-04T01:26:19;0.40;99.90
13585;DHT22;6863;48.402;9.994;2022-12-04T01:28:45;0.30;99.90
13585;DHT22;6863;48.402;9.994;2022-12-04T01:31:17;0.30;99.90
13585;DHT22;6863;48.402;9.994;2022-12-04T01:33:43;0.30;99.90
13585;DHT22;6863;48.402;9.994;2022-12-04T01:36:12;0.40;99.90
13585;DHT22;6863;48.402;9.994;2022-12-04T01:38:38;0.40;99.90
13585;DHT22;6863;48.402;9.994;2022-12-04T01:41:05;0.40;99.90
13585;DHT22;6863;48.402;9.994;2022-12-04T01:43:32;0.40;99.90
13585;DHT22;6863;48.402;9.994;2022-12-04T01:45:59;0.50;99.90
13585;DHT22;6863;48.402;9.994;2022-12-04T01:51:14;0.60;99.90
13585;DHT22;6863;48.402;9.994;2022-12-04T01:53:44;0.60;99.90
13585;DHT22;6863;48.402;9.994;2022-12-04T01:56:13;0.60;99.90
13585;DHT22;6863;48.402;9.994;2022-12-04T01:58:43;0.60;99.90
13585;DHT22;6863;48.402;9.994;2022-12-04T02:01:10;0.60;99.90
13585;DHT22;6863;48.402;9.994;2022-12-04T02:03:37;0.60;99.90
13585;DHT22;6863;48.402;9.994;2022-12-04T02:06:03;0.60;99.90
13585;DHT22;6863;48.402;9.994;2022-12-04T02:08:30;0.60;99.90
13585;DHT22;6863;48.402;9.994;2022-12-04T02:13:55;0.60;99.90
13585;DHT22;6863;48.402;9.994;2022-12-04T02:16:42;0.60;99.90
13585;DHT22;6863;48.402;9.994;2022-12-04T02:19:22;0.60;99.90
13585;DHT22;6863;48.402;9.994;2022-12-04T02:21:56;0.60;99.90
13585;DHT22;6863;48.402;9.994;2022-12-04T02:27:30;0.50;99.90
13585;DHT22;6863;48.402;9.994;2022-12-04T02:30:02;0.50;99.90
13585;DHT22;6863;48.402;9.994;2022-12-04T02:32:39;0.50;99.90
13585;DHT22;6863;48.402;9.994;2022-12-04T02:35:22;0.50;99.90
13585;DHT22;6863;48.402;9.994;2022-12-04T02:38:03;0.50;99.90
13585;DHT22;6863;48.402;9.994;2022-12-04T02:40:43;0.40;99.90
13585;DHT22;6863;48.402;9.994;2022-12-04T02:43:13;0.40;99.90
13585;DHT22;6863;48.402;9.994;2022-12-04T02:46:07;0.40;99.90
13585;DHT22;6863;48.402;9.994;2022-12-04T02:48:39;0.40;99.90
13585;DHT22;6863;48.402;9.994;2022-12-04T02:51:07;0.40;99.90
13585;DHT22;6863;48.402;9.994;2022-12-04T02:53:40;0.50;99.90
13585;DHT22;6863;48.402;9.994;2022-12-04T02:56:11;0.50;99.90
13585;DHT22;6863;48.402;9.994;2022-12-04T02:58:41;0.40;99.90
13585;DHT22;6863;48.402;9.994;2022-12-04T03:01:11;0.50;99.90
13585;DHT22;6863;48.402;9.994;2022-12-04T03:04:21;0.40;99.90
13585;DHT22;6863;48.402;9.994;2022-12-04T03:06:58;0.40;99.90
13585;DHT22;6863;48.402;9.994;2022-12-04T03:09:35;0.40;99.90
13585;DHT22;6863;48.402;9.994;2022-12-04T03:12:23;0.40;99.90
13585;DHT22;6863;48.402;9.994;2022-12-04T03:15:21;0.40;99.90
13585;DHT22;6863;48.402;9.994;2022-12-04T03:18:01;0.40;99.90
13585;DHT22;6863;48.402;9.994;2022-12-04T03:20:29;0.30;99.90
13585;DHT22;6863;48.402;9.994;2022-12-04T03:22:59;0.30;99.90
13585;DHT22;6863;48.402;9.994;2022-12-04T03:25:57;0.40;99.90
13585;DHT22;6863;48.402;9.994;2022-12-04T03:28:33;0.30;99.90
13585;DHT22;6863;48.402;9.994;2022-12-04T03:31:05;0.30;99.90
13585;DHT22;6863;48.402;9.994;2022-12-04T03:33:45;0.40;99.90
13585;DHT22;6863;48.402;9.994;2022-12-04T03:36:22;0.30;99.90
13585;DHT22;6863;48.402;9.994;2022-12-04T03:39:01;0.40;99.90
13585;DHT22;6863;48.402;9.994;2022-12-04T03:41:41;0.40;99.90
13585;DHT22;6863;48.402;9.994;2022-12-04T03:44:35;0.40;99.90
13585;DHT22;6863;48.402;9.994;2022-12-04T03:47:07;0.40;99.90
13585;DHT22;6863;48.402;9.994;2022-12-04T03:54:50;0.50;99.90
13585;DHT22;6863;48.402;9.994;2022-12-04T03:57:31;0.50;99.90
13585;DHT22;6863;48.402;9.994;2022-12-04T04:00:12;0.50;99.90
13585;DHT22;6863;48.402;9.994;2022-12-04T04:05:16;0.40;99.90
13585;DHT22;6863;48.402;9.994;2022-12-04T04:07:46;0.40;99.90
13585;DHT22;6863;48.402;9.994;2022-12-04T04:10:16;0.50;99.90
13585;DHT22;6863;48.402;9.994;2022-12-04T04:13:20;0.40;99.90
13585;DHT22;6863;48.402;9.994;2022-12-04T04:15:56;0.50;99.90
13585;DHT22;6863;48.402;9.994;2022-12-04T04:18:41;0.50;99.90
13585;DHT22;6863;48.402;9.994;2022-12-04T04:21:29;0.50;99.90
13585;DHT22;6863;48.402;9.994;2022-12-04T04:24:29;0.50;99.90
13585;DHT22;6863;48.402;9.994;2022-12-04T04:26:57;0.50;99.90
13585;DHT22;6863;48.402;9.994;2022-12-04T04:29:24;0.50;99.90
13585;DHT22;6863;48.402;9.994;2022-12-04T04:37:29;0.60;99.90
13585;DHT22;6863;48.402;9.994;2022-12-04T04:40:18;0.60;99.90
13585;DHT22;6863;48.402;9.994;2022-12-04T04:42:54;0.50;99.90
13585;DHT22;6863;48.402;9.994;2022-12-04T04:45:25;0.50;99.90
13585;DHT22;6863;48.402;9.994;2022-12-04T04:47:53;0.50;99.90
13585;DHT22;6863;48.402;9.994;2022-12-04T04:50:21;0.50;99.90
13585;DHT22;6863;48.402;9.994;2022-12-04T04:52:50;0.50;99.90
13585;DHT22;6863;48.402;9.994;2022-12-04T04:55:17;0.50;99.90
13585;DHT22;6863;48.402;9.994;2022-12-04T04:57:44;0.50;99.90
13585;DHT22;6863;48.402;9.994;2022-12-04T05:00:12;0.60;99.90
13585;DHT22;6863;48.402;9.994;2022-12-04T05:02:39;0.60;99.90
13585;DHT22;6863;48.402;9.994;2022-12-04T05:05:05;0.60;99.90
13585;DHT22;6863;48.402;9.994;2022-12-04T05:07:30;0.60;99.90
13585;DHT22;6863;48.402;9.994;2022-12-04T05:09:56;0.60;99.90
13585;DHT22;6863;48.402;9.994;2022-12-04T05:12:22;0.60;99.90
13585;DHT22;6863;48.402;9.994;2022-12-04T05:14:47;0.60;99.90
13585;DHT22;6863;48.402;9.994;2022-12-04T05:17:13;0.60;99.90
13585;DHT22;6863;48.402;9.994;2022-12-04T05:19:39;0.60;99.90
13585;DHT22;6863;48.402;9.994;2022-12-04T05:22:32;0.60;99.90
13585;DHT22;6863;48.402;9.994;2022-12-04T05:24:58;0.70;99.90
13585;DHT22;6863;48.402;9.994;2022-12-04T05:27:25;0.70;99.90
13585;DHT22;6863;48.402;9.994;2022-12-04T05:29:52;0.70;99.90
13585;DHT22;6863;48.402;9.994;2022-12-04T05:32:19;0.70;99.90
13585;DHT22;6863;48.402;9.994;2022-12-04T05:34:49;0.80;99.90
13585;DHT22;6863;48.402;9.994;2022-12-04T05:37:15;0.70;99.90
13585;DHT22;6863;48.402;9.994;2022-12-04T05:39:40;0.70;99.90
13585;DHT22;6863;48.402;9.994;2022-12-04T05:42:09;0.80;99.90
13585;DHT22;6863;48.402;9.994;2022-12-04T05:44:34;0.70;99.90
13585;DHT22;6863;48.402;9.994;2022-12-04T05:47:00;0.70;99.90
13585;DHT22;6863;48.402;9.994;2022-12-04T05:49:28;0.70;99.90
13585;DHT22;6863;48.402;9.994;2022-12-04T05:51:54;0.70;99.90
13585;DHT22;6863;48.402;9.994;2022-12-04T05:54:20;0.80;99.90
13585;DHT22;6863;48.402;9.994;2022-12-04T05:56:46;0.80;99.90
13585;DHT22;6863;48.402;9.994;2022-12-04T05:59:11;0.80;99.90
13585;DHT22;6863;48.402;9.994;2022-12-04T06:01:37;0.80;99.90
13585;DHT22;6863;48.402;9.994;2022-12-04T06:04:03;0.80;99.90
13585;DHT22;6863;48.402;9.994;2022-12-04T06:06:28;0.80;99.90
13585;DHT22;6863;48.402;9.994;2022-12-04T06:08:56;0.80;99.90
13585;DHT22;6863;48.402;9.994;2022-12-04T06:11:28;0.90;99.90
13585;DHT22;6863;48.402;9.994;2022-12-04T06:13:54;0.90;99.90
13585;DHT22;6863;48.402;9.994;2022-12-04T06:16:27;1.00;99.90
13585;DHT22;6863;48.402;9.994;2022-12-04T06:18:56;1.00;99.90
13585;DHT22;6863;48.402;9.994;2022-12-04T06:21:23;1.00;99.90
13585;DHT22;6863;48.402;9.994;2022-12-04T06:23:50;1.00;99.90
13585;DHT22;6863;48.402;9.994;2022-12-04T06:26:17;1.00;99.90
13585;DHT22;6863;48.402;9.994;2022-12-04T06:28:42;0.90;99.90
13585;DHT22;6863;48.402;9.994;2022-12-04T06:31:11;1.00;99.90
13585;DHT22;6863;48.402;9.994;2022-12-04T06:33:37;1.00;99.90
13585;DHT22;6863;48.402;9.994;2022-12-04T06:36:09;1.00;99.90
13585;DHT22;6863;48.402;9.994;2022-12-04T06:38:36;1.00;99.90
13585;DHT22;6863;48.402;9.994;2022-12-04T06:41:06;1.00;99.90
13585;DHT22;6863;48.402;9.994;2022-12-04T06:43:32;1.00;99.90
13585;DHT22;6863;48.402;9.994;2022-12-04T06:46:03;1.00;99.90
13585;DHT22;6863;48.402;9.994;2022-12-04T06:48:29;1.00;99.90
13585;DHT22;6863;48.402;9.994;2022-12-04T06:51:03;1.00;99.90
13585;DHT22;6863;48.402;9.994;2022-12-04T06:53:31;1.10;99.90
13585;DHT22;6863;48.402;9.994;2022-12-04T06:55:58;1.10;99.90
13585;DHT22;6863;48.402;9.994;2022-12-04T06:58:24;1.10;99.90
13585;DHT22;6863;48.402;9.994;2022-12-04T07:00:50;1.10;99.90
13585;DHT22;6863;48.402;9.994;2022-12-04T07:03:16;1.10;99.90
13585;DHT22;6863;48.402;9.994;2022-12-04T07:05:41;1.10;99.90
13585;DHT22;6863;48.402;9.994;2022-12-04T07:08:07;1.10;99.90
13585;DHT22;6863;48.402;9.994;2022-12-04T07:10:34;1.20;99.90
13585;DHT22;6863;48.402;9.994;2022-12-04T07:13:01;1.10;99.90
13585;DHT22;6863;48.402;9.994;2022-12-04T07:15:26;1.10;99.90
13585;DHT22;6863;48.402;9.994;2022-12-04T07:17:52;1.10;99.90
13585;DHT22;6863;48.402;9.994;2022-12-04T07:20:18;1.20;99.90
13585;DHT22;6863;48.402;9.994;2022-12-04T07:22:43;1.20;99.90
13585;DHT22;6863;48.402;9.994;2022-12-04T07:25:09;1.20;99.90
13585;DHT22;6863;48.402;9.994;2022-12-04T07:27:35;1.20;99.90
13585;DHT22;6863;48.402;9.994;2022-12-04T07:30:00;1.20;99.90
13585;DHT22;6863;48.402;9.994;2022-12-04T07:32:26;1.30;99.90
13585;DHT22;6863;48.402;9.994;2022-12-04T07:34:51;1.30;99.90
13585;DHT22;6863;48.402;9.994;2022-12-04T07:37:17;1.30;99.90
13585;DHT22;6863;48.402;9.994;2022-12-04T07:39:43;1.20;99.90
13585;DHT22;6863;48.402;9.994;2022-12-04T07:42:08;1.20;99.90
13585;DHT22;6863;48.402;9.994;2022-12-04T07:44:34;1.30;99.90
13585;DHT22;6863;48.402;9.994;2022-12-04T07:46:59;1.30;99.90
13585;DHT22;6863;48.402;9.994;2022-12-04T07:49:25;1.30;99.90
13585;DHT22;6863;48.402;9.994;2022-12-04T07:51:51;1.20;99.90
13585;DHT22;6863;48.402;9.994;2022-12-04T07:54:16;1.20;99.90
13585;DHT22;6863;48.402;9.994;2022-12-04T07:56:42;1.30;99.90
13585;DHT22;6863;48.402;9.994;2022-12-04T07:59:07;1.30;99.90
13585;DHT22;6863;48.402;9.994;2022-12-04T08:01:33;1.30;99.90
13585;DHT22;6863;48.402;9.994;2022-12-04T08:03:59;1.30;99.90
13585;DHT22;6863;48.402;9.994;2022-12-04T08:06:26;1.40;99.90
13585;DHT22;6863;48.402;9.994;2022-12-04T08:08:52;1.40;99.90
13585;DHT22;6863;48.402;9.994;2022-12-04T08:11:21;1.40;99.90
13585;DHT22;6863;48.402;9.994;2022-12-04T08:13:47;1.50;99.90
13585;DHT22;6863;48.402;9.994;2022-12-04T08:16:14;1.50;99.90
13585;DHT22;6863;48.402;9.994;2022-12-04T08:18:40;1.50;99.90
13585;DHT22;6863;48.402;9.994;2022-12-04T08:21:09;1.60;99.90
13585;DHT22;6863;48.402;9.994;2022-12-04T08:23:40;1.60;99.90
13585;DHT22;6863;48.402;9.994;2022-12-04T08:26:07;1.60;99.90
13585;DHT22;6863;48.402;9.994;2022-12-04T08:28:33;1.60;99.90
13585;DHT22;6863;48.402;9.994;2022-12-04T08:33:35;1.60;99.90
13585;DHT22;6863;48.402;9.994;2022-12-04T08:36:04;1.60;99.90
13585;DHT22;6863;48.402;9.994;2022-12-04T08:38:30;1.50;99.90
13585;DHT22;6863;48.402;9.994;2022-12-04T08:40:59;1.50;99.90
13585;DHT22;6863;48.402;9.994;2022-12-04T08:43:25;1.50;99.90
13585;DHT22;6863;48.402;9.994;2022-12-04T08:45:58;1.50;99.90
13585;DHT22;6863;48.402;9.994;2022-12-04T08:48:25;1.50;99.90
13585;DHT22;6863;48.402;9.994;2022-12-04T08:50:51;1.50;99.90
13585;DHT22;6863;48.402;9.994;2022-12-04T08:53:16;1.60;99.90
13585;DHT22;6863;48.402;9.994;2022-12-04T08:55:42;1.60;99.90
13585;DHT22;6863;48.402;9.994;2022-12-04T08:58:07;1.60;99.90
13585;DHT22;6863;48.402;9.994;2022-12-04T09:00:33;1.60;99.90
13585;DHT22;6863;48.402;9.994;2022-12-04T09:02:58;1.60;99.90
13585;DHT22;6863;48.402;9.994;2022-12-04T09:05:24;1.60;99.90
13585;DHT22;6863;48.402;9.994;2022-12-04T09:07:50;1.60;99.90
13585;DHT22;6863;48.402;9.994;2022-12-04T09:10:15;1.60;99.90
13585;DHT22;6863;48.402;9.994;2022-12-04T09:12:41;1.70;99.90
13585;DHT22;6863;48.402;9.994;2022-12-04T09:15:07;1.70;99.90
13585;DHT22;6863;48.402;9.994;2022-12-04T09:17:33;1.70;99.90
13585;DHT22;6863;48.402;9.994;2022-12-04T09:19:59;1.80;99.90
13585;DHT22;6863;48.402;9.994;2022-12-04T09:22:25;1.80;99.90
13585;DHT22;6863;48.402;9.994;2022-12-04T09:24:50;1.80;99.90
13585;DHT22;6863;48.402;9.994;2022-12-04T09:27:16;1.90;99.90
13585;DHT22;6863;48.402;9.994;2022-12-04T09:29:41;1.90;99.90
13585;DHT22;6863;48.402;9.994;2022-12-04T09:32:07;2.00;99.90
13585;DHT22;6863;48.402;9.994;2022-12-04T09:34:33;2.00;99.90
13585;DHT22;6863;48.402;9.994;2022-12-04T09:36:58;2.00;99.90
13585;DHT22;6863;48.402;9.994;2022-12-04T09:39:24;1.90;99.90
13585;DHT22;6863;48.402;9.994;2022-12-04T09:45:15;1.90;99.90
13585;DHT22;6863;48.402;9.994;2022-12-04T09:47:44;1.90;99.90
13585;DHT22;6863;48.402;9.994;2022-12-04T09:50:28;1.90;99.90
13585;DHT22;6863;48.402;9.994;2022-12-04T09:53:17;2.00;99.90
13585;DHT22;6863;48.402;9.994;2022-12-04T09:55:54;2.00;99.90
13585;DHT22;6863;48.402;9.994;2022-12-04T09:58:23;2.00;99.90
13585;DHT22;6863;48.402;9.994;2022-12-04T10:00:51;2.00;99.90
13585;DHT22;6863;48.402;9.994;2022-12-04T10:03:19;2.00;99.90
13585;DHT22;6863;48.402;9.994;2022-12-04T10:08:17;2.10;99.90
13585;DHT22;6863;48.402;9.994;2022-12-04T10:14:02;2.10;99.90
13585;DHT22;6863;48.402;9.994;2022-12-04T10:22:37;2.00;99.90
13585;DHT22;6863;48.402;9.994;2022-12-04T10:25:05;2.00;99.90
13585;DHT22;6863;48.402;9.994;2022-12-04T10:28:05;2.00;99.90
13585;DHT22;6863;48.402;9.994;2022-12-04T10:30:40;2.00;99.90
13585;DHT22;6863;48.402;9.994;2022-12-04T10:35:43;2.10;99.90
13585;DHT22;6863;48.402;9.994;2022-12-04T10:38:39;2.10;99.90
13585;DHT22;6863;48.402;9.994;2022-12-04T10:43:51;2.20;99.90
13585;DHT22;6863;48.402;9.994;2022-12-04T10:46:25;2.20;99.90
13585;DHT22;6863;48.402;9.994;2022-12-04T10:49:00;2.20;99.90
13585;DHT22;6863;48.402;9.994;2022-12-04T10:51:30;2.20;99.90
13585;DHT22;6863;48.402;9.994;2022-12-04T10:53:58;2.20;99.90
13585;DHT22;6863;48.402;9.994;2022-12-04T10:56:24;2.20;99.90
13585;DHT22;6863;48.402;9.994;2022-12-04T10:59:04;2.20;99.90
13585;DHT22;6863;48.402;9.994;2022-12-04T11:01:32;2.30;99.90
13585;DHT22;6863;48.402;9.994;2022-12-04T11:04:02;2.30;99.90
13585;DHT22;6863;48.402;9.994;2022-12-04T11:06:28;2.20;99.90
13585;DHT22;6863;48.402;9.994;2022-12-04T11:08:54;2.30;99.90
13585;DHT22;6863;48.402;9.994;2022-12-04T11:11:34;2.30;99.90
13585;DHT22;6863;48.402;9.994;2022-12-04T11:14:11;2.30;99.90
13585;DHT22;6863;48.402;9.994;2022-12-04T11:16:39;2.40;99.90
13585;DHT22;6863;48.402;9.994;2022-12-04T11:19:29;2.50;99.90
13585;DHT22;6863;48.402;9.994;2022-12-04T11:21:59;2.60;99.90
13585;DHT22;6863;48.402;9.994;2022-12-04T11:24:33;2.60;99.90
13585;DHT22;6863;48.402;9.994;2022-12-04T11:27:01;2.60;99.90
13585;DHT22;6863;48.402;9.994;2022-12-04T11:29:46;2.50;99.90
13585;DHT22;6863;48.402;9.994;2022-12-04T11:32:20;2.50;99.90
13585;DHT22;6863;48.402;9.994;2022-12-04T11:34:47;2.60;99.90
13585;DHT22;6863;48.402;9.994;2022-12-04T11:37:25;2.60;99.90
13585;DHT22;6863;48.402;9.994;2022-12-04T11:39:52;2.60;99.90
13585;DHT22;6863;48.402;9.994;2022-12-04T11:42:25;2.60;99.90
13585;DHT22;6863;48.402;9.994;2022-12-04T11:44:59;2.70;99.90
13585;DHT22;6863;48.402;9.994;2022-12-04T11:47:28;2.80;99.90
13585;DHT22;6863;48.402;9.994;2022-12-04T11:50:11;2.80;99.90
13585;DHT22;6863;48.402;9.994;2022-12-04T11:52:50;2.90;99.90
13585;DHT22;6863;48.402;9.994;2022-12-04T11:55:43;2.90;99.90
13585;DHT22;6863;48.402;9.994;2022-12-04T12:04:04;2.90;99.90
13585;DHT22;6863;48.402;9.994;2022-12-04T12:12:40;3.00;99.90
13585;DHT22;6863;48.402;9.994;2022-12-04T12:21:00;3.00;99.90
13585;DHT22;6863;48.402;9.994;2022-12-04T12:23:42;3.00;99.90
13585;DHT22;6863;48.402;9.994;2022-12-04T12:26:16;2.90;99.90
13585;DHT22;6863;48.402;9.994;2022-12-04T12:34:17;2.90;99.90
13585;DHT22;6863;48.402;9.994;2022-12-04T12:36:49;2.90;99.90
13585;DHT22;6863;48.402;9.994;2022-12-04T12:39:24;2.90;99.90
13585;DHT22;6863;48.402;9.994;2022-12-04T12:41:59;2.90;99.90
13585;DHT22;6863;48.402;9.994;2022-12-04T12:44:35;2.90;99.90
13585;DHT22;6863;48.402;9.994;2022-12-04T12:47:14;2.90;99.90
13585;DHT22;6863;48.402;9.994;2022-12-04T12:54:57;3.00;99.90
13585;DHT22;6863;48.402;9.994;2022-12-04T12:57:36;3.00;99.90
13585;DHT22;6863;48.402;9.994;2022-12-04T13:00:12;3.00;99.90
13585;DHT22;6863;48.402;9.994;2022-12-04T13:03:34;3.00;99.90
13585;DHT22;6863;48.402;9.994;2022-12-04T13:05:39;3.00;99.90
13585;DHT22;6863;48.402;9.994;2022-12-04T13:10:41;3.00;99.90
13585;DHT22;6863;48.402;9.994;2022-12-04T13:13:46;3.00;99.90
13585;DHT22;6863;48.402;9.994;2022-12-04T13:19:05;3.00;99.90
13585;DHT22;6863;48.402;9.994;2022-12-04T13:21:36;2.90;99.90
13585;DHT22;6863;48.402;9.994;2022-12-04T13:24:26;2.90;99.90
13585;DHT22;6863;48.402;9.994;2022-12-04T13:27:07;2.90;99.90
13585;DHT22;6863;48.402;9.994;2022-12-04T13:41:21;2.90;99.90
13585;DHT22;6863;48.402;9.994;2022-12-04T13:43:49;2.90;99.90
13585;DHT22;6863;48.402;9.994;2022-12-04T13:46:35;2.90;99.90
13585;DHT22;6863;48.402;9.994;2022-12-04T13:51:47;2.90;99.90
13585;DHT22;6863;48.402;9.994;2022-12-04T13:56:50;2.80;99.90
13585;DHT22;6863;48.402;9.994;2022-12-04T14:01:57;2.90;99.90
13585;DHT22;6863;48.402;9.994;2022-12-04T14:04:29;2.80;99.90
13585;DHT22;6863;48.402;9.994;2022-12-04T14:06:57;2.80;99.90
13585;DHT22;6863;48.402;9.994;2022-12-04T14:09:27;2.80;99.90
13585;DHT22;6863;48.402;9.994;2022-12-04T14:12:02;2.70;99.90
13585;DHT22;6863;48.402;9.994;2022-12-04T14:15:06;2.70;99.90
13585;DHT22;6863;48.402;9.994;2022-12-04T14:17:35;2.60;99.90
13585;DHT22;6863;48.402;9.994;2022-12-04T14:20:05;2.50;99.90
13585;DHT22;6863;48.402;9.994;2022-12-04T14:25:45;2.50;99.90
13585;DHT22;6863;48.402;9.994;2022-12-04T14:31:02;2.50;99.90
13585;DHT22;6863;48.402;9.994;2022-12-04T14:33:30;2.50;99.90
13585;DHT22;6863;48.402;9.994;2022-12-04T14:36:22;2.50;99.90
13585;DHT22;6863;48.402;9.994;2022-12-04T14:39:40;2.60;99.90
13585;DHT22;6863;48.402;9.994;2022-12-04T14:41:43;2.60;99.90
13585;DHT22;6863;48.402;9.994;2022-12-04T14:44:29;2.60;99.90
13585;DHT22;6863;48.402;9.994;2022-12-04T14:47:12;2.60;99.90
13585;DHT22;6863;48.402;9.994;2022-12-04T14:52:27;2.50;99.90
13585;DHT22;6863;48.402;9.994;2022-12-04T14:58:00;2.50;99.90
13585;DHT22;6863;48.402;9.994;2022-12-04T15:00:51;2.40;99.90
13585;DHT22;6863;48.402;9.994;2022-12-04T15:03:18;2.40;99.90
13585;DHT22;6863;48.402;9.994;2022-12-04T15:05:44;2.40;99.90
13585;DHT22;6863;48.402;9.994;2022-12-04T15:08:11;2.30;99.90
13585;DHT22;6863;48.402;9.994;2022-12-04T15:10:37;2.30;99.90
13585;DHT22;6863;48.402;9.994;2022-12-04T15:13:29;2.20;99.90
13585;DHT22;6863;48.402;9.994;2022-12-04T15:15:55;2.20;99.90
13585;DHT22;6863;48.402;9.994;2022-12-04T15:18:21;2.20;99.90
13585;DHT22;6863;48.402;9.994;2022-12-04T15:23:19;2.20;99.90
13585;DHT22;6863;48.402;9.994;2022-12-04T15:25:52;2.20;99.90
13585;DHT22;6863;48.402;9.994;2022-12-04T15:28:19;2.20;99.90
13585;DHT22;6863;48.402;9.994;2022-12-04T15:30:46;2.30;99.90
13585;DHT22;6863;48.402;9.994;2022-12-04T15:33:21;2.30;99.90
13585;DHT22;6863;48.402;9.994;2022-12-04T15:35:53;2.30;99.90
13585;DHT22;6863;48.402;9.994;2022-12-04T15:38:19;2.30;99.90
13585;DHT22;6863;48.402;9.994;2022-12-04T15:40:54;2.20;99.90
13585;DHT22;6863;48.402;9.994;2022-12-04T15:43:29;2.30;99.90
13585;DHT22;6863;48.402;9.994;2022-12-04T15:45:56;2.30;99.90
13585;DHT22;6863;48.402;9.994;2022-12-04T15:48:27;2.30;99.90
13585;DHT22;6863;48.402;9.994;2022-12-04T15:51:03;2.30;99.90
13585;DHT22;6863;48.402;9.994;2022-12-04T15:53:33;2.40;99.90
13585;DHT22;6863;48.402;9.994;2022-12-04T15:56:05;2.30;99.90
13585;DHT22;6863;48.402;9.994;2022-12-04T15:58:33;2.40;99.90
13585;DHT22;6863;48.402;9.994;2022-12-04T16:01:02;2.30;99.90
13585;DHT22;6863;48.402;9.994;2022-12-04T16:03:33;2.40;99.90
13585;DHT22;6863;48.402;9.994;2022-12-04T16:08:37;2.40;99.90
13585;DHT22;6863;48.402;9.994;2022-12-04T16:13:36;2.40;99.90
13585;DHT22;6863;48.402;9.994;2022-12-04T16:16:07;2.40;99.90
13585;DHT22;6863;48.402;9.994;2022-12-04T16:18:35;2.40;99.90
13585;DHT22;6863;48.402;9.994;2022-12-04T16:21:01;2.50;99.90
13585;DHT22;6863;48.402;9.994;2022-12-04T16:23:27;2.40;99.90
13585;DHT22;6863;48.402;9.994;2022-12-04T16:25:52;2.40;99.90
13585;DHT22;6863;48.402;9.994;2022-12-04T16:28:18;2.40;99.90
13585;DHT22;6863;48.402;9.994;2022-12-04T16:30:44;2.40;99.90
13585;DHT22;6863;48.402;9.994;2022-12-04T16:33:13;2.50;99.90
13585;DHT22;6863;48.402;9.994;2022-12-04T16:35:40;2.40;99.90
13585;DHT22;6863;48.402;9.994;2022-12-04T16:38:07;2.50;99.90
13585;DHT22;6863;48.402;9.994;2022-12-04T16:40:33;2.50;99.90
13585;DHT22;6863;48.402;9.994;2022-12-04T16:42:58;2.40;99.90
13585;DHT22;6863;48.402;9.994;2022-12-04T16:45:25;2.40;99.90
13585;DHT22;6863;48.402;9.994;2022-12-04T16:47:52;2.40;99.90
13585;DHT22;6863;48.402;9.994;2022-12-04T16:50:23;2.40;99.90
13585;DHT22;6863;48.402;9.994;2022-12-04T16:52:49;2.30;99.90
13585;DHT22;6863;48.402;9.994;2022-12-04T16:55:30;2.30;99.90
13585;DHT22;6863;48.402;9.994;2022-12-04T16:57:56;2.30;99.90
13585;DHT22;6863;48.402;9.994;2022-12-04T17:00:21;2.30;99.90
13585;DHT22;6863;48.402;9.994;2022-12-04T17:02:47;2.40;99.90
13585;DHT22;6863;48.402;9.994;2022-12-04T17:05:27;2.30;99.90
13585;DHT22;6863;48.402;9.994;2022-12-04T17:07:53;2.30;99.90
13585;DHT22;6863;48.402;9.994;2022-12-04T17:10:21;2.40;99.90
13585;DHT22;6863;48.402;9.994;2022-12-04T17:12:47;2.40;99.90
13585;DHT22;6863;48.402;9.994;2022-12-04T17:15:13;2.40;99.90
13585;DHT22;6863;48.402;9.994;2022-12-04T17:17:39;2.50;99.90
13585;DHT22;6863;48.402;9.994;2022-12-04T17:20:12;2.40;99.90
13585;DHT22;6863;48.402;9.994;2022-12-04T17:22:38;2.40;99.90
13585;DHT22;6863;48.402;9.994;2022-12-04T17:25:05;2.50;99.90
13585;DHT22;6863;48.402;9.994;2022-12-04T17:27:31;2.50;99.90
13585;DHT22;6863;48.402;9.994;2022-12-04T17:29:57;2.50;99.90
13585;DHT22;6863;48.402;9.994;2022-12-04T17:32:25;2.60;99.90
13585;DHT22;6863;48.402;9.994;2022-12-04T17:34:52;2.60;99.90
13585;DHT22;6863;48.402;9.994;2022-12-04T17:37:18;2.60;99.90
13585;DHT22;6863;48.402;9.994;2022-12-04T17:39:44;2.60;99.90
13585;DHT22;6863;48.402;9.994;2022-12-04T17:42:10;2.60;99.90
13585;DHT22;6863;48.402;9.994;2022-12-04T17:44:36;2.60;99.90
13585;DHT22;6863;48.402;9.994;2022-12-04T17:47:02;2.60;99.90
13585;DHT22;6863;48.402;9.994;2022-12-04T17:49:27;2.60;99.90
13585;DHT22;6863;48.402;9.994;2022-12-04T17:51:53;2.50;99.90
13585;DHT22;6863;48.402;9.994;2022-12-04T17:54:18;2.50;99.90
13585;DHT22;6863;48.402;9.994;2022-12-04T17:56:44;2.50;99.90
13585;DHT22;6863;48.402;9.994;2022-12-04T17:59:13;2.50;99.90
13585;DHT22;6863;48.402;9.994;2022-12-04T18:01:39;2.50;99.90
13585;DHT22;6863;48.402;9.994;2022-12-04T18:04:05;2.50;99.90
13585;DHT22;6863;48.402;9.994;2022-12-04T18:06:35;2.50;99.90
13585;DHT22;6863;48.402;9.994;2022-12-04T18:09:02;2.50;99.90
13585;DHT22;6863;48.402;9.994;2022-12-04T18:11:29;2.50;99.90
13585;DHT22;6863;48.402;9.994;2022-12-04T18:13:57;2.50;99.90
13585;DHT22;6863;48.402;9.994;2022-12-04T18:16:24;2.50;99.90
13585;DHT22;6863;48.402;9.994;2022-12-04T18:18:53;2.50;99.90
13585;DHT22;6863;48.402;9.994;2022-12-04T18:21:19;2.50;99.90
13585;DHT22;6863;48.402;9.994;2022-12-04T18:23:45;2.50;99.90
13585;DHT22;6863;48.402;9.994;2022-12-04T18:26:17;2.50;99.90